Cherry Valley, California
Current Conditions -  °F | °C
As of 9:58 AM on Friday 31 Oct 2014 (Local Time) from KRIV Reporting Station
Overcast Overcast  
Wind Chill: 62°   Ceiling: 2400
Heat Index: 62°   Visibility: 10mi
Dew Point: 56°   Wind: 3mph
Humidity: 83%   Direction: 330°NNW
Pressure: 30"   Gusts: NA
Location:  33.9205°N, 116.973°W
Report Text: KRIV 311658Z 33003KT 10SM FEW014 OVC024 16/14 A3000 RMK AO2A SLP152 T01640136
Loading
Personal Weather Stations






























Interactive Weather Map
Tropical Storm Tracking
New forecast layout! Learn more

10-Day Weather Forecast

Advertisements
Track Severe Weather on mobile